Time;durP1;ratioP1;P1;durP2;ratioP2;P2;SDS_P1;SDS_P2;PMS_P1;PMS_P2;Temp;Humidity;BMP_temperature;BMP_pressure;BME280_temperature;BME280_humidity;BME280_pressure;Samples;Min_cycle;Max_cycle;Signal;HPM_P1;HPM_P2
2022/07/07 00:00:31;;;;;;;4.10;1.25;;;18.00;99.90;;;;;;5034342;28;20479;-74
2022/07/07 00:02:56;;;;;;;3.53;1.10;;;17.90;99.90;;;;;;5016571;28;20045;-74
2022/07/07 00:05:22;;;;;;;4.28;1.23;;;18.00;99.90;;;;;;5016697;28;20029;-74
2022/07/07 00:07:48;;;;;;;7.32;1.67;;;17.90;99.90;;;;;;5034146;28;20025;-74
2022/07/07 00:10:14;;;;;;;5.10;1.23;;;17.90;99.90;;;;;;5016585;28;20017;-74
2022/07/07 00:12:40;;;;;;;4.80;1.52;;;18.00;99.90;;;;;;5034338;28;20034;-74
2022/07/07 00:15:06;;;;;;;4.30;1.77;;;18.00;99.90;;;;;;5033925;28;20132;-74
2022/07/07 00:17:32;;;;;;;2.90;1.55;;;18.00;99.90;;;;;;5016414;28;20030;-74
2022/07/07 00:19:57;;;;;;;3.10;1.15;;;18.00;99.90;;;;;;5034095;28;20025;-74
2022/07/07 00:22:23;;;;;;;5.10;1.98;;;18.00;99.90;;;;;;5034631;28;20017;-74
2022/07/07 00:24:48;;;;;;;5.82;1.13;;;18.00;99.90;;;;;;5033661;28;20071;-74
2022/07/07 00:27:15;;;;;;;4.45;1.50;;;18.00;99.90;;;;;;5033878;28;20025;-74
2022/07/07 00:29:43;;;;;;;2.95;1.10;;;18.00;99.90;;;;;;5033886;28;20482;-74
2022/07/07 00:32:09;;;;;;;;;;;18.00;99.90;;;;;;5033331;28;20029;-74
2022/07/07 00:34:35;;;;;;;3.58;1.42;;;18.00;99.90;;;;;;5033463;28;19955;-74
2022/07/07 00:37:01;;;;;;;1.98;0.75;;;18.00;99.90;;;;;;5033715;28;20057;-74
2022/07/07 00:39:27;;;;;;;7.78;0.55;;;18.00;99.90;;;;;;5033769;28;20021;-74
2022/07/07 00:41:52;;;;;;;3.05;0.73;;;18.00;99.90;;;;;;5033836;28;20024;-74
2022/07/07 00:44:18;;;;;;;3.67;1.63;;;17.90;99.90;;;;;;5033661;28;20062;-74
2022/07/07 00:46:47;;;;;;;2.72;0.88;;;18.00;99.90;;;;;;5033562;28;20044;-74
2022/07/07 00:49:14;;;;;;;3.30;0.60;;;17.90;99.90;;;;;;5033811;28;20022;-74
2022/07/07 00:51:41;;;;;;;2.65;0.45;;;17.90;99.90;;;;;;5033913;28;20030;-74
2022/07/07 00:54:08;;;;;;;3.78;0.65;;;18.00;99.90;;;;;;5033109;28;20014;-74
2022/07/07 00:56:34;;;;;;;2.03;0.10;;;18.00;99.90;;;;;;5013611;28;20034;-74
2022/07/07 00:59:02;;;;;;;0.77;0.25;;;18.00;99.90;;;;;;5013833;28;20018;-74
2022/07/07 01:01:29;;;;;;;2.08;0.40;;;18.00;99.90;;;;;;5013759;28;20034;-74
2022/07/07 01:03:55;;;;;;;3.53;0.30;;;17.90;99.90;;;;;;5019152;28;20098;-74
2022/07/07 01:06:21;;;;;;;0.43;0.10;;;17.90;99.90;;;;;;5033433;28;20053;-74
2022/07/07 01:08:46;;;;;;;2.00;0.10;;;17.90;99.90;;;;;;5015570;28;20035;-74
2022/07/07 01:11:12;;;;;;;3.50;0.20;;;18.00;99.90;;;;;;5033099;28;20025;-74
2022/07/07 01:13:39;;;;;;;0.13;0.10;;;18.00;99.90;;;;;;5033329;28;20108;-74
2022/07/07 01:16:05;;;;;;;2.63;0.30;;;18.00;99.90;;;;;;5015437;28;20099;-74
2022/07/07 01:18:30;;;;;;;2.17;0.00;;;18.00;99.90;;;;;;5033433;28;20026;-74
2022/07/07 01:21:00;;;;;;;0.88;0.28;;;18.00;99.90;;;;;;5033231;28;20112;-74
2022/07/07 01:23:25;;;;;;;2.70;0.30;;;18.00;99.90;;;;;;5033248;28;20025;-74
2022/07/07 01:25:51;;;;;;;0.20;0.00;;;18.10;99.90;;;;;;5033194;28;20034;-74
2022/07/07 01:28:17;;;;;;;1.23;0.00;;;18.10;99.90;;;;;;5033290;28;20049;-74
2022/07/07 01:30:42;;;;;;;2.95;0.00;;;18.10;99.90;;;;;;5014862;28;20505;-74
2022/07/07 01:33:08;;;;;;;4.53;0.10;;;18.20;99.90;;;;;;5033073;28;20017;-74
2022/07/07 01:35:33;;;;;;;3.08;0.20;;;18.20;99.90;;;;;;5033217;28;20382;-74
2022/07/07 01:37:59;;;;;;;1.75;0.00;;;18.10;99.90;;;;;;5015356;28;20364;-74
2022/07/07 01:40:24;;;;;;;1.83;0.00;;;18.10;99.90;;;;;;5032710;28;20026;-74
2022/07/07 01:42:50;;;;;;;1.75;0.10;;;18.00;99.90;;;;;;5033093;28;20030;-74
2022/07/07 01:45:16;;;;;;;0.35;0.00;;;18.00;99.90;;;;;;5037150;28;20108;-75
2022/07/07 01:47:41;;;;;;;0.68;0.00;;;17.90;99.90;;;;;;5036922;28;20022;-75
2022/07/07 01:50:07;;;;;;;2.08;0.20;;;17.90;99.90;;;;;;5037037;28;20056;-75
2022/07/07 01:52:33;;;;;;;0.70;0.10;;;17.80;99.90;;;;;;5018490;28;20087;-75
2022/07/07 01:54:59;;;;;;;0.70;0.00;;;17.60;99.90;;;;;;5019376;28;20021;-75
2022/07/07 01:57:25;;;;;;;2.15;0.45;;;17.60;99.90;;;;;;5019039;28;20052;-74
2022/07/07 01:59:51;;;;;;;1.13;0.00;;;17.40;99.90;;;;;;5037321;28;20049;-77
2022/07/07 02:02:16;;;;;;;5.80;0.30;;;17.30;99.90;;;;;;5036529;28;20041;-77
2022/07/07 02:04:42;;;;;;;0.50;0.00;;;17.20;99.90;;;;;;5020392;28;20128;-78
2022/07/07 02:07:09;;;;;;;2.17;0.00;;;17.20;99.90;;;;;;5038220;28;20378;-78
2022/07/07 02:09:35;;;;;;;0.93;0.00;;;17.10;99.90;;;;;;5035819;28;20030;-78
2022/07/07 02:12:00;;;;;;;1.38;0.10;;;17.10;99.90;;;;;;5036728;28;20109;-75
2022/07/07 02:14:26;;;;;;;2.50;0.13;;;17.10;99.90;;;;;;5036411;28;20037;-75
2022/07/07 02:16:52;;;;;;;0.47;0.00;;;17.00;99.90;;;;;;5036672;28;20049;-75
2022/07/07 02:19:17;;;;;;;0.00;0.00;;;17.00;99.90;;;;;;5036802;28;20114;-75
2022/07/07 02:21:43;;;;;;;1.33;0.10;;;17.00;99.90;;;;;;5036561;28;20112;-75
2022/07/07 02:24:09;;;;;;;2.17;0.10;;;17.00;99.90;;;;;;5036189;28;20080;-75
2022/07/07 02:26:34;;;;;;;0.63;0.20;;;17.00;99.90;;;;;;5019413;28;20030;-78
2022/07/07 02:29:04;;;;;;;2.28;0.43;;;17.00;99.90;;;;;;5021541;28;20069;-78
2022/07/07 02:31:30;;;;;;;1.75;0.17;;;17.00;99.90;;;;;;5039237;28;20105;-78
2022/07/07 02:33:56;;;;;;;0.35;0.00;;;17.00;99.90;;;;;;5038375;28;20115;-78
2022/07/07 02:36:21;;;;;;;0.73;0.10;;;16.90;99.90;;;;;;5020909;28;20052;-78
2022/07/07 02:38:49;;;;;;;1.30;0.10;;;16.90;99.90;;;;;;5020570;28;20080;-78
2022/07/07 02:41:15;;;;;;;2.40;0.20;;;17.00;99.90;;;;;;5039426;28;20105;-77
2022/07/07 02:43:40;;;;;;;1.55;0.20;;;16.90;99.90;;;;;;5038192;28;20049;-78
2022/07/07 02:46:06;;;;;;;3.40;0.77;;;16.90;99.90;;;;;;5038421;28;20041;-78
2022/07/07 02:48:31;;;;;;;4.13;0.47;;;16.90;99.90;;;;;;5038072;28;20033;-78
2022/07/07 02:50:57;;;;;;;1.15;0.10;;;16.90;99.90;;;;;;5038548;28;20029;-78
2022/07/07 02:53:23;;;;;;;1.05;0.43;;;16.80;99.90;;;;;;5020702;28;20018;-77
2022/07/07 02:55:48;;;;;;;1.27;0.13;;;16.90;99.90;;;;;;5019878;28;20037;-78
2022/07/07 02:58:19;;;;;;;1.77;0.20;;;16.80;99.90;;;;;;5038772;28;20383;-78
2022/07/07 03:00:47;;;;;;;1.17;0.28;;;16.80;99.90;;;;;;5038959;28;20017;-78
2022/07/07 03:03:13;;;;;;;3.25;0.20;;;16.80;99.90;;;;;;5020245;28;20056;-78
2022/07/07 03:05:38;;;;;;;0.88;0.13;;;16.80;99.90;;;;;;5037644;28;20067;-78
2022/07/07 03:08:05;;;;;;;2.38;0.20;;;16.80;99.90;;;;;;5018959;28;20406;-78
2022/07/07 03:10:30;;;;;;;1.50;0.20;;;16.70;99.90;;;;;;5037811;28;20028;-78
2022/07/07 03:12:56;;;;;;;2.30;0.10;;;16.70;99.90;;;;;;5019711;28;20088;-78
2022/07/07 03:15:21;;;;;;;3.50;0.10;;;16.70;99.90;;;;;;5037632;28;20367;-78
2022/07/07 03:17:49;;;;;;;2.92;0.20;;;16.70;99.90;;;;;;5037395;28;20030;-78
2022/07/07 03:20:15;;;;;;;3.65;0.30;;;16.70;99.90;;;;;;5037735;28;20021;-78
2022/07/07 03:22:42;;;;;;;2.28;0.20;;;17.20;99.90;;;;;;5037191;28;20383;-75
2022/07/07 03:25:09;;;;;;;1.88;0.08;;;16.70;99.90;;;;;;5035630;28;20048;-75
2022/07/07 03:27:35;;;;;;;1.20;0.00;;;16.70;99.90;;;;;;5035195;28;20385;-75
2022/07/07 03:30:03;;;;;;;2.22;0.65;;;16.70;99.90;;;;;;5035508;28;20053;-75
2022/07/07 03:32:29;;;;;;;1.27;0.22;;;16.60;99.90;;;;;;5035201;28;20056;-73
2022/07/07 03:34:54;;;;;;;4.35;0.10;;;16.60;99.90;;;;;;5035348;28;20478;-73
2022/07/07 03:37:20;;;;;;;4.35;0.10;;;16.60;99.90;;;;;;5035260;28;20025;-73
2022/07/07 03:39:45;;;;;;;2.28;0.10;;;16.60;99.90;;;;;;5035309;28;20033;-73
2022/07/07 03:42:11;;;;;;;3.15;0.00;;;16.50;99.90;;;;;;5017418;28;20030;-74
2022/07/07 03:44:37;;;;;;;2.00;0.17;;;16.50;99.90;;;;;;5017284;28;20029;-74
2022/07/07 03:47:03;;;;;;;2.65;0.10;;;16.50;99.90;;;;;;5016568;28;20438;-74
2022/07/07 03:49:29;;;;;;;5.28;0.10;;;16.40;99.90;;;;;;5017050;28;20025;-74
2022/07/07 03:51:55;;;;;;;3.40;0.20;;;16.40;99.90;;;;;;5017119;28;20025;-74
2022/07/07 03:54:20;;;;;;;1.75;0.10;;;16.50;99.90;;;;;;5017222;28;20017;-74
2022/07/07 03:56:46;;;;;;;2.63;0.38;;;16.40;99.90;;;;;;5016699;28;20056;-74
2022/07/07 03:59:11;;;;;;;3.28;0.20;;;16.40;99.90;;;;;;5034938;28;20029;-74
2022/07/07 04:01:37;;;;;;;2.65;0.10;;;16.40;99.90;;;;;;5034527;28;20065;-74
2022/07/07 04:04:05;;;;;;;0.28;0.00;;;16.40;99.90;;;;;;5034389;28;20498;-74
2022/07/07 04:06:31;;;;;;;1.60;0.20;;;16.40;99.90;;;;;;5034735;28;20026;-75
2022/07/07 04:08:58;;;;;;;3.40;0.32;;;16.40;99.90;;;;;;5016785;28;20037;-75
2022/07/07 04:11:23;;;;;;;0.70;0.10;;;16.40;99.90;;;;;;5016828;28;20030;-75
2022/07/07 04:13:49;;;;;;;0.55;0.10;;;16.40;99.90;;;;;;5016306;28;20024;-75
2022/07/07 04:16:14;;;;;;;2.15;0.00;;;16.40;99.90;;;;;;5034418;28;20025;-75
2022/07/07 04:18:40;;;;;;;2.67;0.00;;;16.40;99.90;;;;;;5034409;28;20014;-75
2022/07/07 04:21:06;;;;;;;2.17;0.00;;;16.40;99.90;;;;;;5034306;28;20034;-76
2022/07/07 04:23:31;;;;;;;0.55;0.00;;;16.40;99.90;;;;;;5034259;28;20100;-75
2022/07/07 04:25:57;;;;;;;4.35;0.10;;;16.40;99.90;;;;;;5016268;28;20367;-75
2022/07/07 04:28:22;;;;;;;2.72;0.00;;;16.50;99.90;;;;;;5034516;28;20025;-75
2022/07/07 04:30:48;;;;;;;1.23;0.03;;;16.60;99.90;;;;;;5034144;28;20101;-75
2022/07/07 04:33:13;;;;;;;3.85;0.00;;;16.50;99.90;;;;;;5017032;28;20458;-75
2022/07/07 04:35:39;;;;;;;1.52;0.20;;;16.40;99.90;;;;;;5034401;28;20076;-74
2022/07/07 04:38:05;;;;;;;1.55;0.15;;;16.50;99.90;;;;;;5034154;28;20075;-74
2022/07/07 04:40:30;;;;;;;1.90;0.00;;;16.50;99.90;;;;;;5033941;28;20100;-74
2022/07/07 04:42:56;;;;;;;1.08;0.03;;;16.50;99.90;;;;;;5034094;28;20026;-74
2022/07/07 04:45:21;;;;;;;2.60;0.17;;;16.50;99.90;;;;;;5034014;28;20029;-74
2022/07/07 04:47:47;;;;;;;5.22;0.60;;;16.50;99.90;;;;;;5033711;28;20022;-74
2022/07/07 04:50:13;;;;;;;2.67;0.00;;;16.60;99.90;;;;;;5033869;28;20029;-75
2022/07/07 04:52:39;;;;;;;6.93;0.47;;;16.50;99.90;;;;;;5016480;28;20060;-75
2022/07/07 04:55:06;;;;;;;4.35;0.00;;;16.70;99.90;;;;;;5033357;28;20029;-74
2022/07/07 04:57:32;;;;;;;2.67;0.00;;;16.50;99.90;;;;;;5033681;28;20025;-74
2022/07/07 04:59:58;;;;;;;5.03;0.10;;;16.50;99.90;;;;;;5033547;28;20437;-74
2022/07/07 05:02:24;;;;;;;3.47;0.00;;;16.60;99.90;;;;;;5033583;28;20041;-75
2022/07/07 05:04:50;;;;;;;4.88;0.00;;;16.50;99.90;;;;;;5033943;28;20052;-75
2022/07/07 05:07:16;;;;;;;2.25;0.40;;;16.50;99.90;;;;;;5033656;28;20390;-75
2022/07/07 05:09:42;;;;;;;0.77;0.00;;;16.60;99.90;;;;;;5016063;28;20554;-75
2022/07/07 05:12:08;;;;;;;4.25;0.10;;;16.60;99.90;;;;;;5016342;28;20014;-76
2022/07/07 05:14:34;;;;;;;3.75;0.40;;;16.70;99.90;;;;;;5034020;28;20021;-76
2022/07/07 05:17:00;;;;;;;7.97;0.00;;;16.70;99.90;;;;;;5016023;28;20052;-75
2022/07/07 05:19:26;;;;;;;5.50;0.05;;;16.70;99.90;;;;;;5015356;28;20080;-75
2022/07/07 05:21:53;;;;;;;3.10;0.10;;;16.70;99.90;;;;;;5033779;28;20049;-75
2022/07/07 05:24:18;;;;;;;2.80;0.00;;;16.70;99.90;;;;;;5016182;28;20497;-75
2022/07/07 05:26:44;;;;;;;4.03;0.05;;;16.70;99.90;;;;;;5033948;28;20021;-75
2022/07/07 05:29:10;;;;;;;5.00;0.00;;;16.70;99.90;;;;;;5016037;28;20029;-76
2022/07/07 05:31:36;;;;;;;6.80;0.45;;;16.70;99.90;;;;;;5015824;28;20022;-75
2022/07/07 05:34:01;;;;;;;6.22;0.55;;;16.70;99.90;;;;;;5016232;28;20097;-77
2022/07/07 05:36:27;;;;;;;6.78;0.65;;;16.70;99.90;;;;;;5016188;28;20422;-75
2022/07/07 05:38:52;;;;;;;6.22;0.22;;;16.80;99.90;;;;;;5016029;28;20024;-75
2022/07/07 05:41:18;;;;;;;3.78;0.40;;;16.80;99.90;;;;;;5033788;28;20108;-75
2022/07/07 05:43:44;;;;;;;5.35;0.30;;;16.70;99.90;;;;;;5033155;28;20079;-75
2022/07/07 05:46:10;;;;;;;5.57;0.30;;;16.70;99.90;;;;;;5015775;28;20387;-75
2022/07/07 05:48:36;;;;;;;4.85;0.20;;;16.70;99.90;;;;;;5015513;28;20075;-75
2022/07/07 05:51:01;;;;;;;2.65;0.00;;;16.70;99.90;;;;;;5015479;28;20033;-75
2022/07/07 05:53:27;;;;;;;7.13;0.68;;;16.70;99.90;;;;;;5032812;28;20029;-75
2022/07/07 05:55:52;;;;;;;3.30;0.35;;;16.80;99.90;;;;;;5015406;28;20013;-76
2022/07/07 05:58:18;;;;;;;1.17;0.10;;;16.80;99.90;;;;;;5033367;28;20017;-76
2022/07/07 06:00:44;;;;;;;2.25;0.00;;;16.70;99.90;;;;;;5033850;28;20025;-76
2022/07/07 06:03:10;;;;;;;1.08;0.00;;;16.70;99.90;;;;;;5015300;28;20061;-75
2022/07/07 06:05:36;;;;;;;6.18;0.30;;;16.70;99.90;;;;;;5032698;28;20103;-75
2022/07/07 06:08:02;;;;;;;1.27;0.00;;;16.70;99.90;;;;;;5033377;28;20474;-75
2022/07/07 06:10:28;;;;;;;2.85;0.15;;;16.80;99.90;;;;;;5033234;28;20453;-75
2022/07/07 06:12:54;;;;;;;4.43;0.32;;;17.10;99.90;;;;;;5033418;28;20079;-73
2022/07/07 06:15:20;;;;;;;3.28;0.40;;;17.40;99.90;;;;;;5032904;28;20029;-74
2022/07/07 06:17:47;;;;;;;3.60;0.30;;;17.80;99.90;;;;;;5015869;28;20128;-72
2022/07/07 06:20:13;;;;;;;3.80;0.10;;;18.00;99.90;;;;;;5032929;28;20018;-75
2022/07/07 06:22:39;;;;;;;2.45;0.00;;;18.00;99.90;;;;;;5033091;28;20105;-75
2022/07/07 06:25:07;;;;;;;3.33;0.20;;;18.10;99.90;;;;;;5015403;28;20017;-75
2022/07/07 06:27:33;;;;;;;5.10;0.00;;;18.10;99.90;;;;;;5033428;28;20017;-75
2022/07/07 06:29:58;;;;;;;3.95;0.00;;;18.10;99.90;;;;;;5032431;28;20029;-76
2022/07/07 06:32:25;;;;;;;2.42;0.20;;;18.10;99.90;;;;;;5018769;28;20060;-75
2022/07/07 06:34:50;;;;;;;6.60;0.43;;;18.00;99.90;;;;;;5018628;28;20073;-75
2022/07/07 06:37:16;;;;;;;1.75;0.15;;;17.90;99.90;;;;;;5036006;28;20120;-75
2022/07/07 06:39:42;;;;;;;2.50;0.30;;;17.70;99.90;;;;;;5036757;28;20033;-75
2022/07/07 06:42:07;;;;;;;1.10;0.00;;;17.60;99.90;;;;;;5036376;28;20080;-76
2022/07/07 06:44:33;;;;;;;2.22;0.03;;;17.50;99.90;;;;;;5018121;28;20052;-74
2022/07/07 06:47:00;;;;;;;0.95;0.00;;;17.50;99.90;;;;;;5018421;28;20368;-75
2022/07/07 06:49:26;;;;;;;0.73;0.00;;;17.40;99.90;;;;;;5036453;28;20052;-76
2022/07/07 06:51:53;;;;;;;0.35;0.00;;;17.50;99.90;;;;;;5019168;28;20013;-76
2022/07/07 06:54:18;;;;;;;1.33;0.00;;;17.60;99.90;;;;;;5019279;28;20017;-76
2022/07/07 06:56:44;;;;;;;2.97;0.05;;;17.70;99.90;;;;;;5037336;28;20031;-76
2022/07/07 06:59:09;;;;;;;3.83;0.00;;;17.90;99.90;;;;;;5019094;28;20501;-75
2022/07/07 07:01:35;;;;;;;1.02;0.20;;;18.00;99.90;;;;;;5049150;22;20035;-76
2022/07/07 07:04:01;;;;;;;1.13;0.00;;;18.20;99.90;;;;;;5056337;28;20029;-76
2022/07/07 07:06:28;;;;;;;0.47;0.10;;;18.20;99.90;;;;;;5055907;28;20485;-76
2022/07/07 07:08:58;;;;;;;8.00;0.00;;;18.30;99.90;;;;;;5055656;28;20066;-76
2022/07/07 07:11:25;;;;;;;3.40;0.08;;;18.30;99.90;;;;;;5037945;28;20037;-76
2022/07/07 07:13:50;;;;;;;2.17;0.00;;;18.50;99.90;;;;;;5037634;28;20029;-76
2022/07/07 07:16:17;;;;;;;1.75;0.20;;;18.60;99.90;;;;;;5056002;28;20381;-77
2022/07/07 07:18:43;;;;;;;2.42;0.00;;;18.70;99.90;;;;;;5055792;28;20104;-76
2022/07/07 07:21:09;;;;;;;1.80;0.25;;;18.80;99.90;;;;;;5055395;28;20106;-76
2022/07/07 07:23:35;;;;;;;2.22;0.28;;;18.80;99.90;;;;;;5055439;28;20470;-76
2022/07/07 07:26:01;;;;;;;1.55;0.20;;;19.10;99.90;;;;;;5055377;28;20017;-77
2022/07/07 07:28:26;;;;;;;2.22;0.00;;;19.50;99.90;;;;;;5055648;28;20040;-76
2022/07/07 07:30:52;;;;;;;1.15;0.00;;;19.90;99.90;;;;;;5055467;28;20057;-76
2022/07/07 07:33:17;;;;;;;3.13;0.00;;;20.20;99.90;;;;;;5037311;28;20060;-75
2022/07/07 07:35:43;;;;;;;4.05;0.20;;;20.20;99.90;;;;;;5055155;28;20025;-75
2022/07/07 07:38:08;;;;;;;2.53;0.30;;;20.10;99.90;;;;;;5037231;28;20017;-75
2022/07/07 07:40:35;;;;;;;2.88;0.00;;;19.90;99.90;;;;;;5055328;28;20017;-75
2022/07/07 07:43:00;;;;;;;2.10;0.35;;;19.80;99.90;;;;;;5036658;28;20111;-76
2022/07/07 07:45:26;;;;;;;2.63;0.17;;;19.70;99.90;;;;;;5055594;28;20427;-76
2022/07/07 07:47:52;;;;;;;1.85;0.00;;;19.60;99.90;;;;;;5055038;28;20044;-76
2022/07/07 07:50:21;;;;;;;1.00;0.03;;;20.70;99.90;;;;;;5037303;28;20025;-76
2022/07/07 07:52:48;;;;;;;1.90;0.00;;;19.30;99.90;;;;;;5054961;28;20539;-76
2022/07/07 07:55:16;;;;;;;1.75;0.00;;;19.50;99.90;;;;;;5054940;28;20025;-76
2022/07/07 07:57:45;;;;;;;0.73;0.00;;;19.60;99.90;;;;;;5054788;28;20445;-76
2022/07/07 08:00:11;;;;;;;;;;;19.40;99.90;;;;;;5055401;28;20412;-76
2022/07/07 08:02:37;;;;;;;3.70;0.00;;;19.20;99.90;;;;;;5054517;28;20004;-76
2022/07/07 08:05:03;;;;;;;2.15;0.03;;;19.00;99.90;;;;;;5054685;28;20474;-76
2022/07/07 08:07:29;;;;;;;3.10;0.00;;;18.80;99.90;;;;;;5036759;28;20027;-76
2022/07/07 08:09:54;;;;;;;4.38;0.20;;;18.60;99.90;;;;;;5054656;28;20028;-76
2022/07/07 08:12:20;;;;;;;4.20;0.43;;;18.40;99.90;;;;;;5054562;28;20108;-76
2022/07/07 08:14:45;;;;;;;1.45;0.20;;;18.50;99.90;;;;;;5054734;28;20036;-76
2022/07/07 08:17:11;;;;;;;1.58;0.00;;;18.60;99.90;;;;;;5054723;28;20021;-76
2022/07/07 08:19:37;;;;;;;3.25;0.47;;;18.80;99.90;;;;;;5054418;28;20154;-76
2022/07/07 08:22:03;;;;;;;1.55;0.20;;;18.80;99.90;;;;;;5054422;28;20029;-76
2022/07/07 08:24:28;;;;;;;0.88;0.03;;;18.90;99.90;;;;;;5055254;28;20036;-76
2022/07/07 08:26:54;;;;;;;5.55;0.10;;;19.00;99.90;;;;;;5055112;28;20524;-75
2022/07/07 08:29:19;;;;;;;1.75;0.00;;;19.10;99.90;;;;;;5054509;28;20025;-75
2022/07/07 08:31:45;;;;;;;0.93;0.00;;;19.20;99.90;;;;;;5054119;28;20073;-73
2022/07/07 08:34:11;;;;;;;2.30;0.10;;;19.30;99.90;;;;;;5054011;28;20021;-75
2022/07/07 08:36:37;;;;;;;1.25;0.10;;;19.30;99.90;;;;;;5054029;28;20028;-73
2022/07/07 08:39:03;;;;;;;2.97;0.10;;;19.20;99.90;;;;;;5054027;28;20107;-74
2022/07/07 08:41:29;;;;;;;1.25;0.10;;;19.40;99.90;;;;;;5054271;28;20079;-74
2022/07/07 08:43:56;;;;;;;0.05;0.05;;;19.60;99.90;;;;;;5053905;28;20031;-74
2022/07/07 08:46:22;;;;;;;3.00;0.40;;;19.80;99.90;;;;;;5054218;28;20036;-74
2022/07/07 08:48:48;;;;;;;3.20;0.00;;;19.80;99.90;;;;;;5036168;28;20389;-75
2022/07/07 08:51:15;;;;;;;2.17;0.10;;;19.80;99.90;;;;;;5037017;28;20028;-74
2022/07/07 08:53:48;;;;;;;3.03;0.00;;;19.50;99.90;;;;;;5035187;28;20396;-74
2022/07/07 08:56:16;;;;;;;2.30;0.00;;;19.30;99.90;;;;;;5054213;28;20274;-74
2022/07/07 08:58:43;;;;;;;0.55;0.20;;;19.10;99.90;;;;;;5044683;28;20053;-74
2022/07/07 09:01:08;;;;;;;2.85;0.00;;;19.20;99.90;;;;;;5015795;28;20033;-74
2022/07/07 09:03:34;;;;;;;0.93;0.00;;;19.20;99.90;;;;;;5033070;28;20390;-74
2022/07/07 09:06:00;;;;;;;0.65;0.00;;;19.30;99.90;;;;;;5033668;28;20462;-74
2022/07/07 09:08:27;;;;;;;1.50;0.00;;;19.60;99.90;;;;;;5033489;28;20030;-74
2022/07/07 09:10:53;;;;;;;0.20;0.00;;;19.70;99.90;;;;;;5033703;28;20109;-74
2022/07/07 09:13:28;;;;;;;0.70;0.00;;;19.80;99.90;;;;;;5033423;28;20136;-74
2022/07/07 09:15:56;;;;;;;0.35;0.00;;;19.70;99.90;;;;;;5015807;28;20055;-74
2022/07/07 09:18:37;;;;;;;1.75;0.00;;;19.80;99.90;;;;;;5033092;28;20030;-74
2022/07/07 09:21:07;;;;;;;3.90;0.22;;;19.70;99.90;;;;;;5033449;28;20017;-74
2022/07/07 09:23:33;;;;;;;2.10;0.10;;;19.50;99.90;;;;;;5033833;28;20018;-74
2022/07/07 09:26:00;;;;;;;1.75;0.00;;;19.40;99.90;;;;;;5033582;28;20429;-74
2022/07/07 09:28:27;;;;;;;1.45;0.00;;;19.40;99.90;;;;;;5033205;28;20021;-74
2022/07/07 09:30:53;;;;;;;2.67;0.22;;;19.70;99.90;;;;;;5033496;28;20474;-74
2022/07/07 09:33:22;;;;;;;0.32;0.00;;;20.00;99.90;;;;;;5033559;28;20021;-74
2022/07/07 09:38:35;;;;;;;1.45;0.25;;;20.00;99.90;;;;;;5033057;28;20445;-74
2022/07/07 09:41:02;;;;;;;1.35;0.22;;;19.90;99.90;;;;;;5015352;28;20049;-74
2022/07/07 09:43:30;;;;;;;3.58;0.08;;;19.90;99.90;;;;;;5033052;28;20104;-74
2022/07/07 09:46:29;;;;;;;1.48;0.00;;;20.10;99.90;;;;;;5015484;28;20045;-75
2022/07/07 09:49:00;;;;;;;2.85;0.00;;;20.70;99.90;;;;;;5033052;28;20021;-75
2022/07/07 09:51:26;;;;;;;1.27;0.20;;;21.00;99.90;;;;;;5033322;28;20063;-75
2022/07/07 09:54:08;;;;;;;0.98;0.00;;;20.80;99.90;;;;;;5015419;28;20029;-75
2022/07/07 09:56:42;;;;;;;1.38;0.00;;;20.60;99.90;;;;;;5015327;28;20024;-75
2022/07/07 09:59:11;;;;;;;1.48;0.30;;;20.10;99.90;;;;;;5033023;28;20033;-75
2022/07/07 10:01:39;;;;;;;1.27;0.00;;;19.90;99.90;;;;;;5033027;28;20027;-75
2022/07/07 10:04:10;;;;;;;2.92;0.25;;;19.90;99.90;;;;;;5033143;28;20088;-75
2022/07/07 10:06:38;;;;;;;3.83;0.00;;;20.10;99.90;;;;;;5036837;28;20099;-76
2022/07/07 10:09:06;;;;;;;4.90;0.00;;;20.20;99.90;;;;;;5037039;28;20475;-76
2022/07/07 10:11:41;;;;;;;1.23;0.00;;;20.30;99.90;;;;;;5018979;28;20104;-75
2022/07/07 10:14:19;;;;;;;2.28;0.00;;;20.30;99.90;;;;;;5037420;28;20025;-76
2022/07/07 10:16:47;;;;;;;7.53;0.10;;;20.20;99.90;;;;;;5037001;28;20037;-75
2022/07/07 10:19:15;;;;;;;1.55;0.20;;;20.10;99.90;;;;;;5036528;28;20029;-76
2022/07/07 10:21:46;;;;;;;3.78;0.13;;;20.10;99.90;;;;;;5036645;28;20053;-76
2022/07/07 10:24:14;;;;;;;3.63;0.38;;;19.90;99.90;;;;;;5036510;28;20057;-75
2022/07/07 10:26:47;;;;;;;2.83;0.13;;;19.80;99.90;;;;;;5036611;28;20148;-75
2022/07/07 10:29:13;;;;;;;2.03;0.32;;;19.70;99.90;;;;;;5036744;28;20033;-75
2022/07/07 10:31:39;;;;;;;4.20;0.00;;;19.90;99.90;;;;;;5036588;28;20032;-76
2022/07/07 10:34:06;;;;;;;2.22;0.00;;;20.00;99.90;;;;;;5036374;28;20028;-75
2022/07/07 10:36:50;;;;;;;2.55;0.35;;;20.10;99.90;;;;;;5018641;28;20025;-76
2022/07/07 10:39:23;;;;;;;1.02;0.00;;;19.80;99.90;;;;;;5036176;28;20021;-75
2022/07/07 10:42:05;;;;;;;2.33;0.00;;;19.70;99.90;;;;;;5036527;28;20492;-76
2022/07/07 10:44:33;;;;;;;1.70;0.20;;;19.70;99.90;;;;;;5036117;28;20112;-75
2022/07/07 10:47:24;;;;;;;1.80;0.00;;;19.70;99.90;;;;;;5036518;28;20048;-75
2022/07/07 10:49:57;;;;;;;1.00;0.00;;;19.70;99.90;;;;;;5035769;28;20048;-76
2022/07/07 10:52:41;;;;;;;1.45;0.00;;;19.80;99.90;;;;;;5018299;28;20048;-75
2022/07/07 10:55:08;;;;;;;1.27;0.00;;;20.00;99.90;;;;;;5018312;28;20068;-76
2022/07/07 10:57:45;;;;;;;0.82;0.20;;;20.20;99.90;;;;;;5018430;28;20025;-76
2022/07/07 11:00:28;;;;;;;0.10;0.00;;;20.60;99.90;;;;;;5035905;28;20032;-76
2022/07/07 11:02:57;;;;;;;2.15;0.10;;;20.90;99.90;;;;;;5017982;28;20379;-76
2022/07/07 11:05:29;;;;;;;2.97;0.03;;;20.90;99.90;;;;;;5035801;28;20036;-76
2022/07/07 11:07:58;;;;;;;3.88;0.00;;;20.90;99.90;;;;;;5035760;28;20033;-76
2022/07/07 11:10:44;;;;;;;1.55;0.00;;;20.70;99.90;;;;;;5035670;28;20017;-76
2022/07/07 11:13:16;;;;;;;0.90;0.00;;;20.20;99.90;;;;;;5036216;28;20474;-75
2022/07/07 11:15:42;;;;;;;5.47;0.65;;;19.80;99.90;;;;;;5035268;28;20018;-75
2022/07/07 11:18:11;;;;;;;0.80;0.00;;;19.50;99.90;;;;;;5017570;28;20083;-76
2022/07/07 11:21:08;;;;;;;0.40;0.00;;;19.40;99.90;;;;;;5035666;28;20017;-76
2022/07/07 11:23:55;;;;;;;1.35;0.00;;;19.50;99.90;;;;;;5017804;28;20028;-76
2022/07/07 11:26:25;;;;;;;0.00;0.00;;;19.60;99.90;;;;;;5035523;28;20091;-76
2022/07/07 11:28:53;;;;;;;2.00;0.10;;;19.60;99.90;;;;;;5017649;28;20104;-76
2022/07/07 11:31:19;;;;;;;0.90;0.05;;;19.60;99.90;;;;;;5017498;28;20363;-76
2022/07/07 11:33:56;;;;;;;0.60;0.00;;;19.70;99.90;;;;;;5035868;28;20028;-76
2022/07/07 11:36:24;;;;;;;2.80;0.08;;;19.80;99.90;;;;;;5035526;28;20022;-76
2022/07/07 11:38:55;;;;;;;2.95;0.00;;;19.90;99.90;;;;;;5035050;28;20017;-76
2022/07/07 11:41:38;;;;;;;5.60;0.10;;;19.90;99.90;;;;;;5017436;28;20057;-75
2022/07/07 11:44:04;;;;;;;2.15;0.43;;;19.60;99.90;;;;;;5017736;28;20082;-75
2022/07/07 11:46:29;;;;;;;3.35;0.30;;;19.70;99.90;;;;;;5035544;28;20025;-76
2022/07/07 11:48:55;;;;;;;3.20;0.00;;;19.80;99.90;;;;;;5034966;28;20378;-76
2022/07/07 11:51:28;;;;;;;3.55;0.10;;;19.70;99.90;;;;;;5035404;28;20030;-76
2022/07/07 11:53:59;;;;;;;3.88;0.08;;;19.90;99.90;;;;;;5034818;28;20021;-76
2022/07/07 11:56:29;;;;;;;2.90;0.03;;;20.20;99.90;;;;;;5035125;28;20473;-75
2022/07/07 11:58:56;;;;;;;4.28;0.20;;;20.50;99.90;;;;;;5034803;28;20156;-76
2022/07/07 12:01:21;;;;;;;0.93;0.00;;;20.70;99.90;;;;;;5034863;28;20025;-76
2022/07/07 12:03:47;;;;;;;3.55;0.40;;;21.00;99.90;;;;;;5034927;28;20049;-75
2022/07/07 12:06:13;;;;;;;2.15;0.30;;;21.10;99.90;;;;;;5016788;28;20014;-75
2022/07/07 12:08:38;;;;;;;1.58;0.00;;;21.20;99.90;;;;;;5034450;28;20041;-74
2022/07/07 12:11:05;;;;;;;7.47;0.50;;;21.40;99.90;;;;;;5035436;28;20026;-76
2022/07/07 12:13:31;;;;;;;3.70;0.08;;;21.40;99.90;;;;;;5016689;28;20026;-76
2022/07/07 12:16:01;;;;;;;5.80;0.38;;;21.10;99.90;;;;;;5035304;28;20021;-76
2022/07/07 12:18:41;;;;;;;2.95;0.03;;;20.50;99.90;;;;;;5016595;28;20022;-76
2022/07/07 12:21:11;;;;;;;3.67;0.10;;;20.30;99.90;;;;;;5016643;28;20033;-76
2022/07/07 12:23:43;;;;;;;4.85;0.10;;;20.20;99.90;;;;;;5035386;28;20420;-74
2022/07/07 12:26:17;;;;;;;5.07;0.10;;;20.20;99.90;;;;;;5016370;28;20028;-74
2022/07/07 12:28:43;;;;;;;5.13;0.40;;;20.50;99.90;;;;;;5033093;28;20029;-74
2022/07/07 12:31:19;;;;;;;1.70;0.00;;;20.80;99.90;;;;;;5033965;28;20029;-74
2022/07/07 12:33:44;;;;;;;5.30;0.20;;;21.00;99.90;;;;;;5034563;28;20525;-73
2022/07/07 12:36:13;;;;;;;4.60;0.10;;;21.20;99.90;;;;;;5033986;28;20030;-74
2022/07/07 12:38:54;;;;;;;1.52;0.00;;;21.30;99.90;;;;;;5033909;28;20022;-74
2022/07/07 12:41:27;;;;;;;7.85;0.28;;;21.40;99.90;;;;;;5034565;28;20025;-74
2022/07/07 12:43:55;;;;;;;11.73;0.55;;;21.30;99.90;;;;;;5034273;28;20415;-74
2022/07/07 12:46:30;;;;;;;5.43;0.10;;;21.40;99.90;;;;;;5033961;28;20483;-74
2022/07/07 12:48:59;;;;;;;21.60;1.48;;;21.60;99.90;;;;;;5034389;28;20026;-74
2022/07/07 12:51:26;;;;;;;6.88;0.35;;;22.10;99.90;;;;;;5015948;28;20025;-74